Time;durP1;ratioP1;P1;durP2;ratioP2;P2;SDS_P1;SDS_P2;PMS_P1;PMS_P2;Temp;Humidity;BMP_temperature;BMP_pressure;BME280_temperature;BME280_humidity;BME280_pressure;Samples;Min_cycle;Max_cycle;Signal;HPM_P1;HPM_P2
2021/05/17 00:01:43;;;;;;;0.90;0.90;;;;;;;10.26;89.33;95619.00;5033981;28;20226;-63
2021/05/17 00:04:11;;;;;;;1.10;1.10;;;;;;;10.32;88.49;95630.28;5033366;28;20217;-63
2021/05/17 00:06:37;;;;;;;1.00;1.00;;;;;;;10.38;87.56;95624.03;5032534;28;20179;-64
2021/05/17 00:09:03;;;;;;;0.93;0.93;;;;;;;10.43;86.73;95629.31;5015668;28;20194;-64
2021/05/17 00:11:28;;;;;;;1.10;1.10;;;;;;;10.24;88.07;95628.94;5033981;28;20191;-63
2021/05/17 00:13:54;;;;;;;1.23;1.23;;;;;;;10.28;87.53;95629.22;5032954;28;20187;-63
2021/05/17 00:16:19;;;;;;;1.10;1.10;;;;;;;10.18;87.47;95629.16;5033391;28;20178;-63
2021/05/17 00:18:45;;;;;;;0.80;0.80;;;;;;;10.07;88.04;95625.66;5033049;28;20651;-64
2021/05/17 00:21:11;;;;;;;1.00;1.00;;;;;;;10.26;86.50;95633.91;5033556;28;20551;-63
2021/05/17 00:23:36;;;;;;;0.93;0.93;;;;;;;10.12;86.92;95630.94;5032916;28;20191;-63
2021/05/17 00:26:03;;;;;;;1.43;1.30;;;;;;;10.11;87.34;95639.81;5032705;28;20181;-63
2021/05/17 00:28:28;;;;;;;1.17;1.17;;;;;;;9.99;87.60;95629.53;5033178;28;20702;-63
2021/05/17 00:30:54;;;;;;;0.90;0.90;;;;;;;10.07;86.78;95635.34;5032530;28;20191;-63
2021/05/17 00:33:20;;;;;;;1.10;1.10;;;;;;;9.96;87.70;95634.47;5033361;28;20186;-63
2021/05/17 00:35:45;;;;;;;1.00;1.00;;;;;;;10.03;87.25;95635.81;5033098;28;20194;-63
2021/05/17 00:38:11;;;;;;;0.93;0.93;;;;;;;9.95;88.05;95630.28;5015049;28;20194;-63
2021/05/17 00:40:36;;;;;;;1.00;1.00;;;;;;;9.96;88.16;95631.84;5033080;28;20636;-64
2021/05/17 00:43:07;;;;;;;0.97;0.97;;;;;;;10.03;88.09;95629.78;5014799;28;20182;-64
2021/05/17 00:45:32;;;;;;;1.00;1.00;;;;;;;10.01;88.41;95630.06;5033434;28;20178;-63
2021/05/17 00:47:58;;;;;;;0.90;0.90;;;;;;;10.03;88.32;95624.56;5031589;28;20190;-63
2021/05/17 00:50:26;;;;;;;1.00;1.00;;;;;;;10.04;87.57;95628.75;5033062;28;20179;-64
2021/05/17 00:52:54;;;;;;;1.10;1.10;;;;;;;9.91;88.05;95624.75;5032866;28;20178;-64
2021/05/17 00:55:19;;;;;;;1.10;1.10;;;;;;;9.98;87.75;95635.78;5032927;28;20300;-63
2021/05/17 00:57:45;;;;;;;1.07;1.07;;;;;;;9.93;87.49;95629.72;5032465;28;20241;-64
2021/05/17 01:00:14;;;;;;;1.10;1.10;;;;;;;9.97;87.52;95626.34;5031477;28;20194;-63
2021/05/17 01:02:40;;;;;;;1.10;1.10;;;;;;;9.91;87.94;95629.22;5032921;28;20252;-63
2021/05/17 01:05:07;;;;;;;1.03;1.03;;;;;;;9.97;87.11;95628.97;5029704;28;20183;-63
2021/05/17 01:07:33;;;;;;;0.97;0.97;;;;;;;9.97;87.24;95628.22;5014669;28;20537;-63
2021/05/17 01:09:59;;;;;;;1.13;1.13;;;;;;;9.97;87.53;95622.97;5032142;28;20186;-63
2021/05/17 01:12:25;;;;;;;1.00;1.00;;;;;;;9.90;87.93;95625.00;5032279;28;20221;-63
2021/05/17 01:14:57;;;;;;;1.00;1.00;;;;;;;9.96;87.62;95627.41;5031689;28;20190;-63
2021/05/17 01:17:24;;;;;;;0.97;0.97;;;;;;;9.91;87.44;95619.53;5015064;28;20574;-63
2021/05/17 01:20:02;;;;;;;0.97;0.97;;;;;;;9.90;87.92;95620.56;5031984;28;20182;-63
2021/05/17 01:22:35;;;;;;;1.00;1.00;;;;;;;9.81;88.63;95618.63;5032108;28;20654;-63
2021/05/17 01:25:01;;;;;;;0.80;0.80;;;;;;;9.81;88.43;95613.41;5031464;28;20278;-63
2021/05/17 01:27:27;;;;;;;0.90;0.90;;;;;;;9.65;89.25;95622.16;5032342;28;20573;-63
2021/05/17 01:29:52;;;;;;;1.37;1.30;;;;;;;9.69;89.19;95624.06;5031447;28;20190;-63
2021/05/17 01:32:18;;;;;;;0.93;0.93;;;;;;;9.64;89.95;95618.00;5032185;28;20621;-64
2021/05/17 01:34:44;;;;;;;1.17;1.00;;;;;;;9.65;89.85;95628.19;5031456;28;20189;-63
2021/05/17 01:37:09;;;;;;;0.90;0.90;;;;;;;9.61;89.56;95621.88;5030977;28;20667;-63
2021/05/17 01:39:36;;;;;;;0.87;0.87;;;;;;;9.61;89.43;95621.88;5031935;28;20273;-64
2021/05/17 01:42:01;;;;;;;1.33;1.00;;;;;;;9.65;89.07;95620.34;5031212;28;20387;-64
2021/05/17 01:44:28;;;;;;;0.90;0.90;;;;;;;9.65;89.08;95616.94;5031648;28;20210;-63
2021/05/17 01:46:57;;;;;;;1.00;1.00;;;;;;;9.62;89.42;95623.47;5013618;28;20194;-63
2021/05/17 01:49:25;;;;;;;1.00;1.00;;;;;;;9.54;89.64;95623.91;5014149;28;20647;-63
2021/05/17 01:51:51;;;;;;;1.00;1.00;;;;;;;9.45;90.70;95617.56;5031412;28;20174;-63
2021/05/17 01:54:18;;;;;;;0.97;0.97;;;;;;;9.45;90.15;95622.78;5031758;28;20194;-63
2021/05/17 01:56:45;;;;;;;1.03;1.03;;;;;;;9.51;90.13;95627.03;5031741;28;20206;-63
2021/05/17 01:59:11;;;;;;;0.87;0.87;;;;;;;9.52;89.84;95632.03;5030842;28;20214;-63
2021/05/17 02:01:36;;;;;;;1.43;1.33;;;;;;;9.50;90.05;95630.69;5031080;28;20711;-63
2021/05/17 02:04:03;;;;;;;1.00;1.00;;;;;;;9.49;89.47;95629.91;5030814;28;20178;-63
2021/05/17 02:06:28;;;;;;;0.90;0.90;;;;;;;9.51;89.37;95627.81;5030857;28;20703;-63
2021/05/17 02:08:54;;;;;;;1.00;1.00;;;;;;;9.55;89.70;95635.97;5030918;28;20386;-64
2021/05/17 02:11:22;;;;;;;1.13;1.13;;;;;;;9.56;88.84;95630.50;5031680;28;20261;-63
2021/05/17 02:13:48;;;;;;;0.90;0.90;;;;;;;9.47;89.14;95633.81;5031335;28;20202;-63
2021/05/17 02:16:14;;;;;;;1.20;1.10;;;;;;;9.56;88.50;95629.69;5031025;28;20582;-63
2021/05/17 02:18:48;;;;;;;1.00;1.00;;;;;;;9.56;87.98;95630.50;5013838;28;20185;-63
2021/05/17 02:21:15;;;;;;;0.80;0.80;;;;;;;9.54;88.14;95631.75;5030689;28;20372;-63
2021/05/17 02:23:42;;;;;;;1.50;0.90;;;;;;;9.45;88.44;95633.25;5031156;28;20198;-63
2021/05/17 02:26:08;;;;;;;1.00;1.00;;;;;;;9.55;88.02;95628.13;5030507;28;20198;-63
2021/05/17 02:28:38;;;;;;;1.30;1.30;;;;;;;9.45;87.50;95628.03;5031589;28;20187;-63
2021/05/17 02:31:05;;;;;;;1.30;0.97;;;;;;;9.43;87.75;95627.47;5030674;28;20191;-63
2021/05/17 02:33:31;;;;;;;1.10;1.10;;;;;;;9.40;86.93;95620.94;5031354;28;20198;-63
2021/05/17 02:35:57;;;;;;;1.10;1.10;;;;;;;9.45;87.57;95630.63;5029512;28;20547;-63
2021/05/17 02:38:22;;;;;;;1.10;1.10;;;;;;;9.41;87.44;95632.19;5031146;28;20198;-63
2021/05/17 02:40:49;;;;;;;1.10;1.10;;;;;;;9.43;86.74;95630.09;5030882;28;20179;-63
2021/05/17 02:43:15;;;;;;;1.00;1.00;;;;;;;9.36;87.21;95632.13;5031107;28;20186;-63
2021/05/17 02:45:41;;;;;;;0.90;0.90;;;;;;;9.41;86.86;95634.78;5030211;28;20543;-64
2021/05/17 02:48:08;;;;;;;1.00;1.00;;;;;;;9.51;86.44;95640.13;5030377;28;20183;-63
2021/05/17 02:50:43;;;;;;;1.00;1.00;;;;;;;9.43;86.99;95637.94;5030791;28;20521;-63
2021/05/17 02:53:27;;;;;;;0.83;0.83;;;;;;;9.42;87.00;95641.56;5030540;28;20262;-63
2021/05/17 02:55:57;;;;;;;1.03;1.00;;;;;;;9.25;88.09;95653.97;5030683;28;20281;-64
2021/05/17 02:58:27;;;;;;;1.20;1.10;;;;;;;9.32;88.11;95662.41;5030984;28;20202;-63
2021/05/17 03:01:09;;;;;;;1.47;1.10;;;;;;;9.27;88.41;95657.13;5030044;28;20313;-63
2021/05/17 03:03:46;;;;;;;0.87;0.87;;;;;;;9.37;87.23;95665.84;5018343;28;20185;-63
2021/05/17 03:06:36;;;;;;;1.03;1.00;;;;;;;9.25;88.20;95672.28;5029637;28;20256;-63
2021/05/17 03:09:05;;;;;;;0.90;0.90;;;;;;;9.26;87.89;95674.63;5029162;28;20199;-63
2021/05/17 03:11:34;;;;;;;1.70;0.90;;;;;;;9.26;88.14;95674.63;5031052;28;20178;-63
2021/05/17 03:14:02;;;;;;;1.43;0.97;;;;;;;9.32;87.71;95676.25;5029956;28;20175;-63
2021/05/17 03:16:27;;;;;;;1.33;1.00;;;;;;;9.42;87.02;95672.97;5013036;28;20545;-63
2021/05/17 03:18:55;;;;;;;0.90;0.90;;;;;;;9.37;88.53;95672.91;5030293;28;20195;-63
2021/05/17 03:21:23;;;;;;;0.90;0.90;;;;;;;9.40;88.04;95669.81;5030619;28;20237;-63
2021/05/17 03:23:51;;;;;;;0.80;0.80;;;;;;;9.37;88.45;95678.94;5030477;28;20233;-63
2021/05/17 03:26:18;;;;;;;1.00;1.00;;;;;;;9.28;89.10;95682.25;5030554;28;20232;-63
2021/05/17 03:28:43;;;;;;;0.90;0.90;;;;;;;9.18;89.40;95681.09;5012908;28;20676;-63
2021/05/17 03:31:09;;;;;;;0.90;0.90;;;;;;;9.24;88.93;95679.34;5030099;28;20193;-63
2021/05/17 03:33:34;;;;;;;0.90;0.90;;;;;;;9.27;89.23;95675.41;5030846;28;20241;-63
2021/05/17 03:36:00;;;;;;;1.23;1.20;;;;;;;9.29;88.57;95673.38;5029834;28;20179;-63
2021/05/17 03:38:25;;;;;;;2.30;1.00;;;;;;;9.14;89.51;95671.34;5030220;28;20570;-63
2021/05/17 03:40:51;;;;;;;0.83;0.83;;;;;;;9.25;88.77;95677.50;5030210;28;20590;-63
2021/05/17 03:43:16;;;;;;;1.07;0.97;;;;;;;9.23;88.73;95671.72;5029946;28;20183;-63
2021/05/17 03:45:42;;;;;;;1.70;1.10;;;;;;;9.18;89.24;95677.69;5029692;28;20217;-64
2021/05/17 03:48:07;;;;;;;0.90;0.90;;;;;;;9.14;89.42;95677.38;5029843;28;20202;-63
2021/05/17 03:50:32;;;;;;;0.80;0.80;;;;;;;9.22;88.71;95684.00;5030834;28;20657;-63
2021/05/17 03:52:58;;;;;;;1.20;1.10;;;;;;;9.18;88.88;95688.16;5029884;28;20195;-64
2021/05/17 03:55:23;;;;;;;0.90;0.90;;;;;;;9.24;88.57;95683.78;5012985;28;20209;-64
2021/05/17 03:57:49;;;;;;;1.00;1.00;;;;;;;9.18;88.46;95688.94;5014416;28;20301;-64
2021/05/17 04:00:14;;;;;;;1.83;0.90;;;;;;;9.31;87.91;95698.22;5033110;28;20196;-64
2021/05/17 04:02:42;;;;;;;0.93;0.93;;;;;;;9.36;87.49;95698.25;5021223;28;20181;-64
2021/05/17 04:05:25;;;;;;;0.80;0.80;;;;;;;9.31;88.11;95708.66;5033204;28;20201;-63
2021/05/17 04:15:44;;;;;;;0.77;0.77;;;;;;;9.39;87.64;95712.69;5033994;28;20193;-64
2021/05/17 04:18:10;;;;;;;1.53;1.30;;;;;;;9.41;87.46;95711.44;5032703;28;20206;-64
2021/05/17 04:20:35;;;;;;;0.90;0.90;;;;;;;9.41;88.12;95714.03;5033837;28;20197;-64
2021/05/17 04:23:01;;;;;;;1.60;0.93;;;;;;;9.47;87.51;95714.88;5032790;28;20179;-64
2021/05/17 04:25:27;;;;;;;0.80;0.80;;;;;;;9.46;87.45;95723.75;5033896;28;20191;-64
2021/05/17 04:27:52;;;;;;;0.90;0.90;;;;;;;9.57;87.44;95720.22;5033159;28;20187;-63
2021/05/17 04:30:18;;;;;;;1.00;1.00;;;;;;;9.71;86.38;95721.41;5032757;28;20186;-64
2021/05/17 04:32:43;;;;;;;0.90;0.90;;;;;;;9.66;86.56;95725.78;5033744;28;20305;-64
2021/05/17 04:35:09;;;;;;;0.90;0.90;;;;;;;9.74;86.12;95710.44;5032358;28;20545;-63
2021/05/17 04:37:35;;;;;;;1.00;1.00;;;;;;;9.82;85.86;95717.03;5033046;28;20210;-64
2021/05/17 04:40:01;;;;;;;1.10;1.10;;;;;;;10.06;84.87;95722.75;5032421;28;20649;-64
2021/05/17 04:42:26;;;;;;;0.90;0.90;;;;;;;10.11;83.94;95720.97;5033147;28;20651;-64
2021/05/17 04:44:51;;;;;;;1.70;1.20;;;;;;;10.08;83.95;95720.69;5032896;28;20195;-64
2021/05/17 04:47:17;;;;;;;1.20;1.20;;;;;;;10.04;84.43;95728.25;5014805;28;20179;-64
2021/05/17 04:49:42;;;;;;;1.13;1.13;;;;;;;10.01;84.34;95724.31;5033292;28;20205;-64
2021/05/17 04:52:08;;;;;;;1.07;1.07;;;;;;;10.18;84.21;95732.06;5032402;28;20214;-64
2021/05/17 04:54:33;;;;;;;0.93;0.93;;;;;;;10.19;83.49;95730.25;5033308;28;20542;-64
2021/05/17 04:56:58;;;;;;;1.40;1.30;;;;;;;10.19;83.45;95736.28;5032211;28;20202;-64
2021/05/17 04:59:24;;;;;;;1.03;1.03;;;;;;;10.26;82.38;95736.03;5033314;28;20183;-64
2021/05/17 05:01:49;;;;;;;1.17;1.17;;;;;;;10.14;82.49;95730.19;5033170;28;20680;-64
2021/05/17 05:04:15;;;;;;;1.13;1.03;;;;;;;10.16;82.06;95742.00;5031862;28;20193;-64
2021/05/17 05:06:40;;;;;;;0.80;0.80;;;;;;;10.35;81.27;95743.22;5032367;28;20193;-64
2021/05/17 05:09:06;;;;;;;0.93;0.93;;;;;;;10.70;79.31;95753.13;5030984;28;20183;-63
2021/05/17 05:11:31;;;;;;;1.00;1.00;;;;;;;11.08;77.84;95743.41;5032395;28;20182;-64
2021/05/17 05:13:56;;;;;;;1.20;1.10;;;;;;;11.23;76.52;95752.13;5032023;28;20175;-64
2021/05/17 05:16:22;;;;;;;0.83;0.83;;;;;;;11.19;75.63;95750.28;5032425;28;20209;-64
2021/05/17 05:18:47;;;;;;;0.90;0.90;;;;;;;11.18;75.63;95757.34;5032604;28;20182;-64
2021/05/17 05:21:12;;;;;;;0.90;0.90;;;;;;;11.30;74.87;95748.50;5031507;28;20194;-64
2021/05/17 05:23:38;;;;;;;0.93;0.93;;;;;;;11.38;74.98;95755.84;5031535;28;20232;-64
2021/05/17 05:29:07;;;;;;;0.73;0.73;;;;;;;11.93;71.61;95752.63;5032437;28;20189;-64
2021/05/17 05:34:00;;;;;;;0.77;0.77;;;;;;;11.84;71.61;95754.19;5031318;28;20197;-63
2021/05/17 05:36:26;;;;;;;0.80;0.80;;;;;;;12.22;70.89;95751.09;5032334;28;20195;-63
2021/05/17 05:38:51;;;;;;;0.70;0.70;;;;;;;12.60;68.97;95751.63;5031898;28;20182;-63
2021/05/17 05:41:17;;;;;;;0.70;0.70;;;;;;;12.83;67.49;95756.31;5031439;28;20273;-64
2021/05/17 05:43:42;;;;;;;1.07;1.03;;;;;;;12.76;67.56;95753.19;5031752;28;20253;-63
2021/05/17 05:46:08;;;;;;;0.60;0.60;;;;;;;12.43;66.99;95751.88;5030948;28;20277;-64
2021/05/17 05:48:47;;;;;;;0.60;0.60;;;;;;;12.23;68.83;95757.94;5014496;28;20185;-63
2021/05/17 05:51:23;;;;;;;0.67;0.67;;;;;;;12.12;70.45;95763.44;5030801;28;20179;-64
2021/05/17 05:53:50;;;;;;;0.70;0.70;;;;;;;12.24;69.55;95759.50;5031527;28;20181;-63
2021/05/17 05:56:16;;;;;;;0.63;0.50;;;;;;;12.22;69.14;95758.19;5030921;28;20798;-64
2021/05/17 05:58:44;;;;;;;0.60;0.60;;;;;;;12.05;69.00;95767.09;5031631;28;20199;-66
2021/05/17 06:01:10;;;;;;;0.60;0.60;;;;;;;12.00;68.86;95764.47;5030263;28;20700;-63
2021/05/17 06:03:36;;;;;;;0.60;0.60;;;;;;;12.19;69.06;95779.75;5031926;28;20205;-64
2021/05/17 06:06:03;;;;;;;0.50;0.50;;;;;;;11.93;68.47;95771.00;5024367;28;20194;-64
2021/05/17 06:08:28;;;;;;;1.63;0.83;;;;;;;11.79;69.29;95773.34;5031637;28;20201;-64
2021/05/17 06:10:54;;;;;;;0.70;0.70;;;;;;;11.95;69.00;95780.22;5031395;28;20186;-65
2021/05/17 06:13:20;;;;;;;0.60;0.60;;;;;;;11.79;69.17;95783.06;5026567;28;20186;-65
2021/05/17 06:15:46;;;;;;;0.70;0.70;;;;;;;11.88;68.52;95786.75;5031177;28;20553;-65
2021/05/17 06:18:14;;;;;;;0.77;0.77;;;;;;;11.89;68.92;95783.88;5030539;28;20202;-64
2021/05/17 06:20:41;;;;;;;0.60;0.60;;;;;;;12.02;68.35;95777.34;5031197;28;20191;-64
2021/05/17 06:23:09;;;;;;;1.43;0.60;;;;;;;12.08;68.79;95792.88;5030886;28;20214;-64
2021/05/17 06:25:35;;;;;;;1.20;0.70;;;;;;;12.06;67.78;95788.91;5031201;28;20341;-64
2021/05/17 06:28:02;;;;;;;3.33;0.90;;;;;;;12.10;66.88;95792.59;5030853;28;20185;-64
2021/05/17 06:30:28;;;;;;;0.60;0.60;;;;;;;11.90;68.20;95795.16;5031811;28;20248;-65
2021/05/17 06:32:55;;;;;;;0.80;0.80;;;;;;;11.87;68.20;95796.47;5031302;28;20187;-65
2021/05/17 06:35:27;;;;;;;0.70;0.70;;;;;;;11.80;68.86;95801.19;5029762;28;20218;-64
2021/05/17 06:37:53;;;;;;;0.73;0.70;;;;;;;11.90;68.42;95798.59;4998717;28;20714;-65
2021/05/17 06:40:19;;;;;;;1.60;0.70;;;;;;;11.90;69.03;95803.84;5030635;28;20209;-65
2021/05/17 06:42:45;;;;;;;0.77;0.77;;;;;;;11.91;67.83;95810.69;5030983;28;20182;-65
2021/05/17 06:45:11;;;;;;;0.73;0.73;;;;;;;12.04;67.34;95806.75;5012196;28;20630;-65
2021/05/17 06:47:36;;;;;;;0.67;0.67;;;;;;;12.03;67.88;95813.88;5030928;28;20545;-64
2021/05/17 06:50:04;;;;;;;0.67;0.67;;;;;;;12.09;67.61;95815.44;5012599;28;20182;-65
2021/05/17 06:52:30;;;;;;;0.63;0.63;;;;;;;12.05;67.98;95819.63;5030971;28;20182;-65
2021/05/17 06:55:04;;;;;;;0.70;0.70;;;;;;;12.07;68.73;95825.44;5031042;28;20269;-65
2021/05/17 07:00:24;;;;;;;0.80;0.80;;;;;;;12.08;70.12;95829.63;5030303;28;20252;-65
2021/05/17 07:02:51;;;;;;;0.70;0.70;;;;;;;12.08;69.55;95832.25;5030612;28;20659;-65
2021/05/17 07:05:20;;;;;;;0.80;0.80;;;;;;;11.90;69.62;95837.19;5029469;28;20205;-65
2021/05/17 07:13:16;;;;;;;0.70;0.70;;;;;;;12.01;70.15;95842.22;5030011;28;20607;-65
2021/05/17 07:15:41;;;;;;;0.80;0.80;;;;;;;12.18;70.01;95843.84;5030484;28;20273;-65
2021/05/17 07:18:08;;;;;;;0.83;0.83;;;;;;;12.38;69.74;95846.50;5029913;28;20733;-65
2021/05/17 07:25:43;;;;;;;0.83;0.70;;;;;;;12.96;73.47;95847.84;5030502;28;20182;-64
2021/05/17 07:28:08;;;;;;;0.70;0.70;;;;;;;13.09;67.58;95849.94;5030350;28;20203;-65
2021/05/17 07:30:34;;;;;;;1.03;0.90;;;;;;;13.12;66.91;95862.59;5031027;28;20233;-64
2021/05/17 07:33:00;;;;;;;1.10;1.00;;;;;;;13.09;66.54;95854.41;5032694;28;20192;-64
2021/05/17 07:35:25;;;;;;;0.70;0.70;;;;;;;12.83;67.05;95858.88;5033890;28;20265;-65
2021/05/17 07:37:51;;;;;;;0.70;0.70;;;;;;;13.07;67.37;95859.16;5034497;28;20297;-64
2021/05/17 07:40:16;;;;;;;0.70;0.67;;;;;;;13.44;65.56;95861.47;5033428;28;20194;-64
2021/05/17 07:42:42;;;;;;;0.67;0.67;;;;;;;13.95;64.26;95862.91;5034047;28;20262;-65
2021/05/17 07:45:07;;;;;;;0.90;0.90;;;;;;;14.35;62.46;95861.13;5033055;28;20195;-65
2021/05/17 07:47:33;;;;;;;0.63;0.63;;;;;;;14.31;60.94;95860.09;5034151;28;20190;-65
2021/05/17 07:49:58;;;;;;;0.60;0.60;;;;;;;14.36;60.39;95858.22;5033786;28;20233;-65
2021/05/17 07:52:24;;;;;;;0.60;0.60;;;;;;;14.48;58.05;95853.44;5033734;28;20216;-65
2021/05/17 07:54:50;;;;;;;0.50;0.50;;;;;;;14.37;58.44;95870.38;5034081;28;20214;-65
2021/05/17 07:57:15;;;;;;;0.53;0.53;;;;;;;14.08;58.24;95872.06;5025144;28;20210;-64
2021/05/17 07:59:41;;;;;;;1.23;0.50;;;;;;;13.92;58.03;95870.56;5034185;28;20719;-64
2021/05/17 08:02:07;;;;;;;0.60;0.60;;;;;;;14.18;57.76;95879.13;5032750;28;20218;-65
2021/05/17 08:04:32;;;;;;;4.60;0.93;;;;;;;13.95;58.03;95870.00;5033883;28;20186;-65
2021/05/17 08:06:58;;;;;;;1.60;0.70;;;;;;;13.95;58.01;95878.69;5033149;28;20202;-65
2021/05/17 08:09:24;;;;;;;0.93;0.50;;;;;;;14.02;57.78;95876.56;5033368;28;20186;-65
2021/05/17 08:11:50;;;;;;;0.63;0.60;;;;;;;14.13;58.54;95872.84;5033847;28;20249;-65
2021/05/17 08:14:17;;;;;;;0.50;0.50;;;;;;;13.77;59.40;95873.22;5017550;28;20183;-65
2021/05/17 08:16:43;;;;;;;0.50;0.50;;;;;;;13.87;58.77;95871.38;5033731;28;20190;-65
2021/05/17 08:19:08;;;;;;;2.03;0.70;;;;;;;13.62;58.38;95874.88;5032842;28;20185;-65
2021/05/17 08:21:34;;;;;;;0.50;0.50;;;;;;;13.96;58.05;95872.38;5033773;28;20679;-65
2021/05/17 08:23:59;;;;;;;1.03;0.50;;;;;;;14.20;58.05;95880.44;5033485;28;20183;-64
2021/05/17 08:26:25;;;;;;;0.50;0.50;;;;;;;14.21;57.02;95874.09;5033042;28;20198;-65
2021/05/17 08:28:50;;;;;;;0.40;0.40;;;;;;;14.14;56.56;95881.53;5033428;28;20211;-65
2021/05/17 08:31:19;;;;;;;0.60;0.60;;;;;;;14.14;56.44;95876.25;5032742;28;20198;-65
2021/05/17 08:33:44;;;;;;;2.10;0.60;;;;;;;14.44;56.24;95875.31;5033547;28;20182;-64
2021/05/17 08:36:10;;;;;;;0.50;0.50;;;;;;;14.77;55.78;95879.06;5032102;28;20256;-65
2021/05/17 08:38:36;;;;;;;2.60;0.70;;;;;;;15.24;55.07;95870.50;5033479;28;20203;-65
2021/05/17 08:41:02;;;;;;;0.50;0.50;;;;;;;15.45;54.22;95881.66;5033448;28;20186;-64
2021/05/17 08:43:28;;;;;;;1.03;0.47;;;;;;;15.06;53.39;95887.03;5014364;28;20206;-65
2021/05/17 08:45:54;;;;;;;0.50;0.50;;;;;;;15.23;52.99;95882.91;5033025;28;20186;-64
2021/05/17 08:48:19;;;;;;;0.33;0.33;;;;;;;15.46;51.62;95877.97;5032317;28;20195;-64
2021/05/17 08:50:45;;;;;;;0.40;0.40;;;;;;;15.50;51.83;95884.25;5032978;28;20252;-64
2021/05/17 08:53:11;;;;;;;0.60;0.60;;;;;;;15.32;51.95;95883.13;5032399;28;20191;-64
2021/05/17 08:55:37;;;;;;;0.43;0.43;;;;;;;15.30;52.36;95893.16;5033080;28;20241;-65
2021/05/17 08:58:03;;;;;;;0.97;0.40;;;;;;;15.06;56.52;95892.31;5032770;28;20206;-64
2021/05/17 09:00:28;;;;;;;0.70;0.70;;;;;;;15.09;56.49;95891.75;5032578;28;20185;-65
2021/05/17 09:02:54;;;;;;;0.73;0.50;;;;;;;14.91;55.28;95891.38;5032457;28;20186;-63
2021/05/17 09:05:21;;;;;;;0.63;0.63;;;;;;;14.84;57.33;95900.66;5031967;28;20585;-65
2021/05/17 09:07:49;;;;;;;0.67;0.50;;;;;;;14.67;58.70;95906.31;5032620;28;20233;-65
2021/05/17 09:10:31;;;;;;;3.00;0.57;;;;;;;14.38;58.26;95900.13;5032108;28;20229;-65
2021/05/17 09:13:01;;;;;;;0.40;0.40;;;;;;;14.46;57.33;95886.41;5028147;28;20572;-65
2021/05/17 09:15:46;;;;;;;0.50;0.50;;;;;;;14.88;56.39;95894.53;5032314;28;20179;-64
2021/05/17 09:18:27;;;;;;;0.50;0.50;;;;;;;15.65;54.56;95887.56;5031287;28;20198;-64
2021/05/17 09:20:53;;;;;;;0.65;0.65;;;;;;;16.13;52.38;95893.63;5032739;28;20202;-64
2021/05/17 09:23:27;;;;;;;0.40;0.40;;;;;;;16.22;52.19;95894.56;5031678;28;20197;-65
2021/05/17 09:26:11;;;;;;;0.50;0.50;;;;;;;16.29;52.55;95894.22;5017210;28;20198;-65
2021/05/17 09:28:40;;;;;;;0.50;0.50;;;;;;;16.37;52.42;95885.66;5032623;28;20185;-64
2021/05/17 09:31:08;;;;;;;0.40;0.40;;;;;;;16.33;52.29;95886.53;5031961;28;20193;-65
2021/05/17 09:33:44;;;;;;;0.55;0.50;;;;;;;16.17;52.07;95885.91;5030466;28;20523;-65
2021/05/17 09:36:25;;;;;;;0.57;0.57;;;;;;;16.03;51.97;95885.03;5031667;28;20193;-65
2021/05/17 09:39:10;;;;;;;0.30;0.30;;;;;;;15.79;51.85;95885.81;5032330;28;20202;-65
2021/05/17 09:41:48;;;;;;;0.47;0.47;;;;;;;15.87;52.89;95884.44;5016437;28;20186;-64
2021/05/17 09:44:15;;;;;;;0.57;0.50;;;;;;;16.09;52.46;95891.84;5012856;28;20203;-66
2021/05/17 09:46:58;;;;;;;0.50;0.50;;;;;;;15.87;54.18;95889.72;5014814;28;20191;-64
2021/05/17 09:49:32;;;;;;;2.87;0.57;;;;;;;15.36;56.87;95905.25;5031826;28;20441;-65
2021/05/17 09:52:17;;;;;;;0.40;0.40;;;;;;;15.24;59.06;95908.25;5013693;28;20194;-65
2021/05/17 09:54:57;;;;;;;0.73;0.50;;;;;;;14.69;60.23;95912.09;5031526;28;20187;-64
2021/05/17 09:57:35;;;;;;;0.40;0.40;;;;;;;14.75;60.34;95904.94;5031184;28;20194;-63
2021/05/17 10:00:12;;;;;;;0.57;0.57;;;;;;;15.23;59.29;95911.16;5031238;28;20592;-64
2021/05/17 10:03:00;;;;;;;0.50;0.50;;;;;;;15.29;59.20;95894.22;5032086;28;20355;-64
2021/05/17 10:05:29;;;;;;;1.47;0.50;;;;;;;15.87;57.19;95899.50;5030586;28;20502;-64
2021/05/17 10:07:59;;;;;;;0.50;0.50;;;;;;;15.85;57.08;95893.69;5031409;28;20229;-65
2021/05/17 10:10:28;;;;;;;0.60;0.60;;;;;;;15.78;57.53;95900.09;5030677;28;20192;-65
2021/05/17 10:13:04;;;;;;;0.60;0.60;;;;;;;15.75;56.03;95895.38;5031507;28;20186;-67
2021/05/17 10:15:31;;;;;;;0.57;0.43;;;;;;;15.73;57.04;95891.44;5030995;28;20253;-66
2021/05/17 10:17:59;;;;;;;0.50;0.50;;;;;;;15.29;58.36;95881.81;5031643;28;20258;-65
2021/05/17 10:20:25;;;;;;;0.60;0.60;;;;;;;15.48;57.72;95892.47;5030821;28;20213;-65
2021/05/17 10:22:53;;;;;;;1.03;0.40;;;;;;;15.57;58.53;95888.19;5031446;28;20229;-65
2021/05/17 10:25:29;;;;;;;0.40;0.40;;;;;;;15.50;58.44;95890.31;5030576;28;20191;-64
2021/05/17 10:28:00;;;;;;;0.40;0.40;;;;;;;15.36;58.55;95892.84;5016205;28;20196;-64
2021/05/17 10:30:32;;;;;;;0.60;0.60;;;;;;;15.50;59.44;95890.31;5030840;28;20183;-64
2021/05/17 10:32:59;;;;;;;0.50;0.50;;;;;;;15.81;58.30;95893.47;5031219;28;20187;-64
2021/05/17 10:35:32;;;;;;;0.80;0.50;;;;;;;15.82;57.86;95881.06;5029968;28;20786;-65
2021/05/17 10:38:13;;;;;;;1.70;0.60;;;;;;;15.35;59.86;95888.63;5000049;28;20209;-65
2021/05/17 10:40:41;;;;;;;0.60;0.60;;;;;;;14.81;67.87;95909.91;5012330;28;20635;-64
2021/05/17 10:48:31;;;;;;;0.80;0.80;;;;;;;13.73;75.34;95915.91;5030045;28;20214;-64
2021/05/17 10:51:18;;;;;;;3.00;0.90;;;;;;;13.84;73.33;95902.72;5030598;28;20225;-64
2021/05/17 10:53:44;;;;;;;0.97;0.87;;;;;;;13.82;74.04;95896.94;5030598;28;20173;-63
2021/05/17 10:56:11;;;;;;;1.57;0.83;;;;;;;14.37;73.13;95899.38;5028570;28;20182;-65
2021/05/17 11:02:12;;;;;;;0.70;0.70;;;;;;;14.97;69.69;95886.84;5030836;28;20272;-64
2021/05/17 11:04:52;;;;;;;0.70;0.70;;;;;;;15.31;68.88;95881.53;5017391;28;20209;-64
2021/05/17 11:07:22;;;;;;;2.10;0.80;;;;;;;15.31;66.61;95873.63;5030921;28;20190;-64
2021/05/17 11:09:48;;;;;;;1.50;0.83;;;;;;;15.23;66.77;95877.63;5034973;28;20190;-64
2021/05/17 11:12:25;;;;;;;0.70;0.70;;;;;;;15.15;63.05;95894.09;5034331;28;20635;-65
2021/05/17 11:15:09;;;;;;;0.80;0.80;;;;;;;15.05;62.60;95896.78;5034565;28;20186;-64
2021/05/17 11:18:18;;;;;;;0.60;0.60;;;;;;;15.03;61.77;95895.50;5032835;28;20535;-64
2021/05/17 11:20:52;;;;;;;0.77;0.77;;;;;;;15.15;61.91;95895.94;5034758;28;20204;-64
2021/05/17 11:23:22;;;;;;;0.60;0.60;;;;;;;15.41;60.20;95889.34;5033683;28;20654;-64
2021/05/17 11:25:50;;;;;;;0.50;0.50;;;;;;;15.56;58.17;95889.22;5032931;28;20175;-65
2021/05/17 11:28:18;;;;;;;0.73;0.73;;;;;;;15.57;57.04;95882.88;5021483;28;20604;-64
2021/05/17 11:30:45;;;;;;;0.60;0.60;;;;;;;15.54;56.87;95896.66;5034531;28;20194;-64
2021/05/17 11:33:20;;;;;;;0.50;0.50;;;;;;;15.50;59.48;95889.53;5033880;28;20187;-64
2021/05/17 11:36:18;;;;;;;0.60;0.60;;;;;;;15.49;58.75;95891.38;5034162;28;20572;-64
2021/05/17 11:39:08;;;;;;;0.60;0.60;;;;;;;15.62;57.95;95900.53;4974980;28;20211;-64
2021/05/17 11:41:45;;;;;;;1.67;0.60;;;;;;;15.21;63.60;95923.88;5029775;28;20199;-64
2021/05/17 11:44:17;;;;;;;0.57;0.57;;;;;;;14.43;69.69;95926.50;5033347;28;20171;-64
2021/05/17 11:46:49;;;;;;;0.57;0.57;;;;;;;14.05;72.83;95915.53;5033885;28;20205;-64
2021/05/17 11:49:17;;;;;;;0.80;0.80;;;;;;;13.86;77.06;95916.41;5033049;28;20274;-64
2021/05/17 11:51:47;;;;;;;1.13;0.80;;;;;;;13.85;74.66;95914.84;5033242;28;20201;-64
2021/05/17 11:54:12;;;;;;;0.67;0.67;;;;;;;13.68;75.32;95901.97;5033199;28;20182;-64
2021/05/17 11:56:44;;;;;;;0.80;0.80;;;;;;;13.81;76.88;95911.97;5017353;28;20236;-64
2021/05/17 11:59:12;;;;;;;1.13;0.80;;;;;;;13.89;74.23;95892.94;5033119;28;20198;-65
2021/05/17 12:01:42;;;;;;;0.70;0.70;;;;;;;14.06;76.05;95896.03;5033685;28;20250;-64
2021/05/17 12:04:14;;;;;;;0.70;0.70;;;;;;;13.81;75.02;95905.91;5033187;28;20178;-64
2021/05/17 12:06:45;;;;;;;1.07;0.80;;;;;;;13.82;75.03;95899.56;5033440;28;20217;-64
2021/05/17 12:09:10;;;;;;;0.70;0.70;;;;;;;13.90;73.89;95909.53;5033099;28;20197;-65
2021/05/17 12:11:47;;;;;;;0.87;0.87;;;;;;;14.09;71.53;95908.69;5034212;28;20666;-64
2021/05/17 12:14:13;;;;;;;1.53;0.83;;;;;;;14.09;69.72;95900.78;5017989;28;20175;-64
2021/05/17 12:16:38;;;;;;;0.80;0.80;;;;;;;14.21;67.48;95902.31;5015966;28;20669;-64
2021/05/17 12:19:04;;;;;;;0.60;0.60;;;;;;;14.41;67.32;95913.59;5033059;28;20578;-64